Relevés horaires Beauvechain (Belgique)


Relevés horaires à Beauvechain - Jeudi 25 Juin 2020
Heure UTC1 Température [°C] Vent [km/h] Hum. [%] Pres.4 [hPa] Visi. [Km] Nébu. [octa] Préc.5 [mm] Cond.
2m. Res. Ros. Dir.2 Vit. Moy. Raf.3
23:00 21.5 21.5 15.0 NNO 0.0 -- 0.0 67 1013.5(-0.6/3h) 20 -- -- --
22:00 22.2 22.2 15.0 NNO 0.0 -- 0.0 64 1013.6(-0.3/3h) 20 -- -- --
21:00 23.5 23.5 15.2 NNO 0.0 -- 0.0 60 1013.8(0.0/3h) 20 -- -- --
20:00 25.3 25.3 15.1 NNO 0.0 -- 0.0 53 1014(0.0/3h) 20 -- -- --
19:00 26.4 26.4 15.2 NNO 0.0 -- 0.0 50 1013.7(-0.7/3h) 20 -- -- --
18:00 28.6 28.6 12.8 NNO 0.0 -- 0.0 38 1013.7(-1.1/3h) 20 -- -- --
17:00 29.0 29.0 13.4 NNO 0.0 -- 0.0 38 1013.7(-1.6/3h) 20 -- -- --
15:00 29.2 29.2 13.2 ENE 7.4 -- 0.0 37 1014.7(-1.6/3h) 20 2/8 -- --
14:00 28.4 28.4 12.1 ENE 7.4 -- 0.0 36 1015.3(-1.4/3h) 20 2/8 -- --
13:00 28.2 28.2 14.2 ENE 7.4 -- 0.0 42 1015.8(-1.4/3h) 18 2/8 -- --
12:00 27.0 27.0 13.9 ENE 7.4 -- 14.8 45 1016.6(-1.0/3h) 20 2/8 -- --
11:00 26.5 26.5 13.8 ENE 7.4 -- 13.0 46 1017(-0.9/3h) 20 1/8 -- --
10:00 25.8 25.8 13.8 E 5.6 -- 13.0 48 1017.3(-0.8/3h) 20 1/8 -- --
09:00 24.5 24.5 14.0 ENE 5.6 -- 9.3 52 1017.7(-0.3/3h) 20 1/8 -- --
08:00 22.6 22.6 14.0 E 5.6 -- 9.3 58 1018.1(0.1/3h) 20 0/8 -- --
07:00 20.4 20.4 12.3 E 5.6 -- 9.3 60 1018.5(0.0/3h) 20 0/8 -- --
06:00 19.1 19.1 12.5 E 3.7 -- 7.4 66 1018.3(-0.2/3h) 20 0/8 -- --
05:00 17.6 17.6 11.0 E 3.7 -- 5.6 65 1018.5(-0.4/3h) 20 0/8 -- --
04:00 15.6 15.6 10.7 E 5.6 -- 7.4 73 1018.7(-0.5/3h) 20 -- -- --
03:00 16.9 16.9 10.7 NNO 1.9 -- 5.6 67 1018.7(-0.7/3h) 20 -- -- --
02:00 17.7 17.7 10.9 NNO 1.9 -- 5.6 64 1019(-0.6/3h) 20 -- -- --
01:00 18.3 18.3 11.1 E 3.7 -- 5.6 63 1019.2(-0.3/3h) 20 -- -- --
00:00 19.5 19.5 10.9 NNO 1.9 -- 11.1 58 1019.3(-0.2/3h) 20 -- -- --

1 Coordinated Universal Time. Actuellement il est 12:00 locale et 10:00 UTC.

2 Le vent souffle depuis la direction indiquée vers la direction oposée.

3 Les rafales max. sont disponible 40 min après l'heure du relevé.

4 Pour les stations d'altitude (plus de 600m) le géopotentiel du niveau le plus proche de la pression obligatoire est indiqué.

5 Les stations disposant d'un diffuseur peuvent indiquer "trace". Cela signifie que des précipitations ont touchés le sol mais que la quantité est inférieure à 0.1 mm.

Récapitulatif de la journée
Température [°C] Vent [km/h] Ensoleillement4 [h] Precipitations totale5 [mm] Pression [Hpa]
Min1 Max.2 Moy.3 Max. Min Max.
14.8 29.3 0 14.8 0 h 0 min 0 1013.5 1019.3

1 Température minimale relevée entre 18:00 UTC la veille et 18:00 UTC le jour donné.

2 Température maximale relevée entre 06:00 UTC le jour donné et 06:00 UTC le lendemain.

3 Vent moyen de la journée basé sur les relevés horaires.

4 Ensoleillement en heures relevé entre 06:00 UTC la veille et 06:00 UTC le jour donné.

5 Précipitations totales tombées entre 06:00 UTC la jour donné et 06:00 UTC le lendemain.

Graphiques horaires